Terminal Aerodrome Forecast
Issued by NWS Louisville, KY

Home | Current Version | Previous Version | Text Only | Print | Product List | Glossary On
Versions: 1 2 3 4 5 6 7 8 9 10 11 12 13 14 15 16 17 18 19
000
FTUS43 KLMK 271142
TAFLEX
TAF
KLEX 271142Z 2712/2812 VRB03KT P6SM BKN060
     FM271900 19008KT P6SM VCSH SCT040 BKN090
     FM272300 17006KT P6SM -SHRA VCTS BKN035CB
     FM280400 17006KT 5SM -SHRA BR BKN035
     FM280900 20005KT 5SM BR VCSH BKN025=

USA.gov is the U.S. government's official web portal to all federal, state and local government web resources and services.